Main page
METAR-TAF:

METAR-TAF

Airports :

RAF Shawbury

Shawbury, England

latitude: 52-48N, longitude: 002-40W, elevation: 76 m

Current weather observation

The report was made 1 hour and 14 minutes ago, at 19:50 UTC
Wind 2 kt from the South
Temperature 17°C
Humidity 59%
Pressure 1022 hPa
Visibility 10 km or more
no clouds below 1500 m and no cumulonimbus

METAR: EGOS 191950Z 18002KT CAVOK 17/09 Q1022 RMK BLU

Time: 22:04 (21:04 UTC)

Forecast

The report was made 1 hour and 46 minutes ago, at 19:18 UTC
Forecast valid from 19 at 21 UTC to 20 at 02 UTC
Wind 3 kt from variable directions
Visibility 10 km or more
Few clouds at a height of 4500 ft

TAF: EGOS 191918Z 1921/2002 VRB03KT 9999 FEW045

Weather observations and forecasts of more than 4000 airports (METAR and TAF reports).

The available stations are represented by yellow and red dots on the map.

Hover mouse over dot to see the name of the station.

Then click to see weather observations and forecasts.

To change the map : click on the green buttons with a black cross to zoom in, on the green button with a dash to zoom out, or on the green arrows for adjacent maps.


METAR-TAF: